sensor_id;sensor_type;location;lat;lon;timestamp;P1;durP1;ratioP1;P2;durP2;ratioP2
51578;SDS011;47998;53.242;6.386;2022-09-09T00:04:43;38.53;;;20.85;;
51578;SDS011;47998;53.242;6.386;2022-09-09T00:10:38;31.52;;;20.65;;
51578;SDS011;47998;53.242;6.386;2022-09-09T00:21:38;36.85;;;21.02;;
51578;SDS011;47998;53.242;6.386;2022-09-09T00:24:28;36.22;;;21.80;;
51578;SDS011;47998;53.242;6.386;2022-09-09T00:27:01;39.28;;;21.40;;
51578;SDS011;47998;53.242;6.386;2022-09-09T00:32:12;32.63;;;20.35;;
51578;SDS011;47998;53.242;6.386;2022-09-09T00:34:48;41.60;;;22.20;;
51578;SDS011;47998;53.242;6.386;2022-09-09T00:37:18;38.95;;;22.60;;
51578;SDS011;47998;53.242;6.386;2022-09-09T00:39:46;40.97;;;23.38;;
51578;SDS011;47998;53.242;6.386;2022-09-09T00:42:24;35.13;;;22.05;;
51578;SDS011;47998;53.242;6.386;2022-09-09T00:47:45;37.47;;;21.98;;
51578;SDS011;47998;53.242;6.386;2022-09-09T00:56:14;37.75;;;21.45;;
51578;SDS011;47998;53.242;6.386;2022-09-09T00:58:50;40.55;;;22.17;;
51578;SDS011;47998;53.242;6.386;2022-09-09T01:01:40;37.30;;;20.58;;
51578;SDS011;47998;53.242;6.386;2022-09-09T01:04:09;32.95;;;20.42;;
51578;SDS011;47998;53.242;6.386;2022-09-09T01:06:41;37.80;;;22.92;;
51578;SDS011;47998;53.242;6.386;2022-09-09T01:09:29;37.53;;;23.10;;
51578;SDS011;47998;53.242;6.386;2022-09-09T01:12:38;38.88;;;22.80;;
51578;SDS011;47998;53.242;6.386;2022-09-09T01:20:17;32.42;;;22.00;;
51578;SDS011;47998;53.242;6.386;2022-09-09T01:25:30;37.60;;;22.25;;
51578;SDS011;47998;53.242;6.386;2022-09-09T01:28:30;40.35;;;22.60;;
51578;SDS011;47998;53.242;6.386;2022-09-09T01:30:56;44.30;;;24.17;;
51578;SDS011;47998;53.242;6.386;2022-09-09T01:33:23;37.08;;;20.85;;
51578;SDS011;47998;53.242;6.386;2022-09-09T01:35:57;38.40;;;21.60;;
51578;SDS011;47998;53.242;6.386;2022-09-09T01:38:46;46.08;;;24.73;;
51578;SDS011;47998;53.242;6.386;2022-09-09T01:41:12;35.55;;;20.85;;
51578;SDS011;47998;53.242;6.386;2022-09-09T01:43:38;30.90;;;20.05;;
51578;SDS011;47998;53.242;6.386;2022-09-09T01:46:04;35.92;;;21.95;;
51578;SDS011;47998;53.242;6.386;2022-09-09T01:48:30;29.88;;;19.60;;
51578;SDS011;47998;53.242;6.386;2022-09-09T01:50:56;26.98;;;18.75;;
51578;SDS011;47998;53.242;6.386;2022-09-09T01:53:22;33.80;;;19.08;;
51578;SDS011;47998;53.242;6.386;2022-09-09T01:55:55;29.50;;;19.48;;
51578;SDS011;47998;53.242;6.386;2022-09-09T02:01:35;28.02;;;17.98;;
51578;SDS011;47998;53.242;6.386;2022-09-09T02:04:14;29.98;;;19.42;;
51578;SDS011;47998;53.242;6.386;2022-09-09T02:07:00;31.63;;;18.10;;
51578;SDS011;47998;53.242;6.386;2022-09-09T02:09:26;26.77;;;18.52;;
51578;SDS011;47998;53.242;6.386;2022-09-09T02:12:16;26.05;;;17.58;;
51578;SDS011;47998;53.242;6.386;2022-09-09T02:14:47;27.65;;;18.25;;
51578;SDS011;47998;53.242;6.386;2022-09-09T02:17:22;26.90;;;18.33;;
51578;SDS011;47998;53.242;6.386;2022-09-09T02:19:56;32.67;;;20.23;;
51578;SDS011;47998;53.242;6.386;2022-09-09T02:22:34;33.22;;;19.38;;
51578;SDS011;47998;53.242;6.386;2022-09-09T02:25:05;29.55;;;18.00;;
51578;SDS011;47998;53.242;6.386;2022-09-09T02:27:33;34.38;;;22.25;;
51578;SDS011;47998;53.242;6.386;2022-09-09T02:30:00;32.78;;;19.40;;
51578;SDS011;47998;53.242;6.386;2022-09-09T02:32:28;35.83;;;20.23;;
51578;SDS011;47998;53.242;6.386;2022-09-09T02:35:02;33.38;;;21.33;;
51578;SDS011;47998;53.242;6.386;2022-09-09T02:37:33;37.58;;;23.17;;
51578;SDS011;47998;53.242;6.386;2022-09-09T02:40:05;39.53;;;23.42;;
51578;SDS011;47998;53.242;6.386;2022-09-09T02:42:38;32.88;;;21.45;;
51578;SDS011;47998;53.242;6.386;2022-09-09T02:45:08;43.00;;;24.08;;
51578;SDS011;47998;53.242;6.386;2022-09-09T02:47:38;35.90;;;22.77;;
51578;SDS011;47998;53.242;6.386;2022-09-09T02:53:19;34.50;;;20.63;;
51578;SDS011;47998;53.242;6.386;2022-09-09T02:58:23;31.75;;;19.20;;
51578;SDS011;47998;53.242;6.386;2022-09-09T03:00:50;27.02;;;19.60;;
51578;SDS011;47998;53.242;6.386;2022-09-09T03:03:16;28.00;;;19.42;;
51578;SDS011;47998;53.242;6.386;2022-09-09T03:05:43;32.35;;;18.85;;
51578;SDS011;47998;53.242;6.386;2022-09-09T03:08:09;25.98;;;16.58;;
51578;SDS011;47998;53.242;6.386;2022-09-09T03:10:36;27.35;;;18.20;;
51578;SDS011;47998;53.242;6.386;2022-09-09T03:13:02;27.10;;;19.02;;
51578;SDS011;47998;53.242;6.386;2022-09-09T03:15:29;26.42;;;17.10;;
51578;SDS011;47998;53.242;6.386;2022-09-09T03:17:56;28.10;;;17.95;;
51578;SDS011;47998;53.242;6.386;2022-09-09T03:20:23;31.55;;;19.30;;
51578;SDS011;47998;53.242;6.386;2022-09-09T03:22:53;29.42;;;18.33;;
51578;SDS011;47998;53.242;6.386;2022-09-09T03:25:19;26.92;;;17.58;;
51578;SDS011;47998;53.242;6.386;2022-09-09T03:27:47;27.48;;;18.45;;
51578;SDS011;47998;53.242;6.386;2022-09-09T03:30:13;27.95;;;18.33;;
51578;SDS011;47998;53.242;6.386;2022-09-09T03:32:40;33.80;;;19.05;;
51578;SDS011;47998;53.242;6.386;2022-09-09T03:35:06;30.48;;;19.17;;
51578;SDS011;47998;53.242;6.386;2022-09-09T03:37:32;29.48;;;18.52;;
51578;SDS011;47998;53.242;6.386;2022-09-09T03:39:58;30.35;;;18.60;;
51578;SDS011;47998;53.242;6.386;2022-09-09T03:42:25;29.77;;;18.02;;
51578;SDS011;47998;53.242;6.386;2022-09-09T03:44:50;24.92;;;17.40;;
51578;SDS011;47998;53.242;6.386;2022-09-09T03:47:17;32.40;;;19.42;;
51578;SDS011;47998;53.242;6.386;2022-09-09T03:49:43;30.52;;;17.65;;
51578;SDS011;47998;53.242;6.386;2022-09-09T03:52:10;32.80;;;19.27;;
51578;SDS011;47998;53.242;6.386;2022-09-09T03:54:35;28.90;;;16.88;;
51578;SDS011;47998;53.242;6.386;2022-09-09T03:57:01;27.55;;;17.20;;
51578;SDS011;47998;53.242;6.386;2022-09-09T03:59:27;28.13;;;17.88;;
51578;SDS011;47998;53.242;6.386;2022-09-09T04:01:53;29.70;;;16.55;;
51578;SDS011;47998;53.242;6.386;2022-09-09T04:04:19;27.70;;;17.17;;
51578;SDS011;47998;53.242;6.386;2022-09-09T04:06:45;31.15;;;18.17;;
51578;SDS011;47998;53.242;6.386;2022-09-09T04:09:13;24.52;;;15.63;;
51578;SDS011;47998;53.242;6.386;2022-09-09T04:11:39;27.27;;;16.02;;
51578;SDS011;47998;53.242;6.386;2022-09-09T04:14:05;21.42;;;15.00;;
51578;SDS011;47998;53.242;6.386;2022-09-09T04:16:31;23.95;;;15.30;;
51578;SDS011;47998;53.242;6.386;2022-09-09T04:19:03;29.42;;;16.50;;
51578;SDS011;47998;53.242;6.386;2022-09-09T04:21:32;25.08;;;14.27;;
51578;SDS011;47998;53.242;6.386;2022-09-09T04:23:58;19.98;;;13.75;;
51578;SDS011;47998;53.242;6.386;2022-09-09T04:26:24;25.02;;;14.15;;
51578;SDS011;47998;53.242;6.386;2022-09-09T04:28:49;24.90;;;13.40;;
51578;SDS011;47998;53.242;6.386;2022-09-09T04:31:19;22.85;;;13.95;;
51578;SDS011;47998;53.242;6.386;2022-09-09T04:33:48;20.48;;;12.60;;
51578;SDS011;47998;53.242;6.386;2022-09-09T04:36:14;21.73;;;12.95;;
51578;SDS011;47998;53.242;6.386;2022-09-09T04:38:41;22.70;;;13.20;;
51578;SDS011;47998;53.242;6.386;2022-09-09T04:41:07;26.65;;;14.05;;
51578;SDS011;47998;53.242;6.386;2022-09-09T04:43:33;22.50;;;12.40;;
51578;SDS011;47998;53.242;6.386;2022-09-09T04:45:59;22.02;;;13.23;;
51578;SDS011;47998;53.242;6.386;2022-09-09T04:48:25;27.67;;;14.15;;
51578;SDS011;47998;53.242;6.386;2022-09-09T04:50:58;18.75;;;12.93;;
51578;SDS011;47998;53.242;6.386;2022-09-09T04:53:26;18.92;;;12.25;;
51578;SDS011;47998;53.242;6.386;2022-09-09T04:58:47;20.30;;;12.48;;
51578;SDS011;47998;53.242;6.386;2022-09-09T05:01:17;18.65;;;12.50;;
51578;SDS011;47998;53.242;6.386;2022-09-09T05:03:45;21.30;;;12.23;;
51578;SDS011;47998;53.242;6.386;2022-09-09T05:06:11;21.17;;;13.25;;
51578;SDS011;47998;53.242;6.386;2022-09-09T05:08:45;19.38;;;12.35;;
51578;SDS011;47998;53.242;6.386;2022-09-09T05:11:17;22.38;;;13.00;;
51578;SDS011;47998;53.242;6.386;2022-09-09T05:13:48;21.25;;;13.35;;
51578;SDS011;47998;53.242;6.386;2022-09-09T05:16:15;22.75;;;11.88;;
51578;SDS011;47998;53.242;6.386;2022-09-09T05:18:42;21.58;;;13.23;;
51578;SDS011;47998;53.242;6.386;2022-09-09T05:21:08;26.88;;;13.75;;
51578;SDS011;47998;53.242;6.386;2022-09-09T05:23:35;22.58;;;13.60;;
51578;SDS011;47998;53.242;6.386;2022-09-09T05:26:02;22.35;;;12.82;;
51578;SDS011;47998;53.242;6.386;2022-09-09T05:28:29;23.20;;;14.32;;
51578;SDS011;47998;53.242;6.386;2022-09-09T05:30:59;23.65;;;13.75;;
51578;SDS011;47998;53.242;6.386;2022-09-09T05:33:26;24.17;;;14.27;;
51578;SDS011;47998;53.242;6.386;2022-09-09T05:35:56;19.58;;;13.55;;
51578;SDS011;47998;53.242;6.386;2022-09-09T05:38:23;24.58;;;13.68;;
51578;SDS011;47998;53.242;6.386;2022-09-09T05:40:52;23.17;;;14.07;;
51578;SDS011;47998;53.242;6.386;2022-09-09T05:43:19;25.25;;;14.38;;
51578;SDS011;47998;53.242;6.386;2022-09-09T05:45:45;20.85;;;13.60;;
51578;SDS011;47998;53.242;6.386;2022-09-09T05:48:13;28.42;;;15.43;;
51578;SDS011;47998;53.242;6.386;2022-09-09T05:50:41;24.90;;;14.20;;
51578;SDS011;47998;53.242;6.386;2022-09-09T05:53:08;24.50;;;14.65;;
51578;SDS011;47998;53.242;6.386;2022-09-09T05:55:35;24.42;;;14.50;;
51578;SDS011;47998;53.242;6.386;2022-09-09T05:58:00;21.25;;;13.32;;
51578;SDS011;47998;53.242;6.386;2022-09-09T06:00:26;18.85;;;14.10;;
51578;SDS011;47998;53.242;6.386;2022-09-09T06:02:52;28.13;;;15.20;;
51578;SDS011;47998;53.242;6.386;2022-09-09T06:05:18;24.90;;;15.63;;
51578;SDS011;47998;53.242;6.386;2022-09-09T06:07:44;27.20;;;15.65;;
51578;SDS011;47998;53.242;6.386;2022-09-09T06:10:10;23.77;;;15.35;;
51578;SDS011;47998;53.242;6.386;2022-09-09T06:12:38;25.98;;;17.10;;
51578;SDS011;47998;53.242;6.386;2022-09-09T06:15:05;21.88;;;15.18;;
51578;SDS011;47998;53.242;6.386;2022-09-09T06:17:30;25.20;;;15.00;;
51578;SDS011;47998;53.242;6.386;2022-09-09T06:19:56;24.33;;;15.27;;
51578;SDS011;47998;53.242;6.386;2022-09-09T06:22:22;23.35;;;15.73;;
51578;SDS011;47998;53.242;6.386;2022-09-09T06:24:48;23.60;;;15.82;;
51578;SDS011;47998;53.242;6.386;2022-09-09T06:27:14;25.33;;;15.80;;
51578;SDS011;47998;53.242;6.386;2022-09-09T06:29:39;23.48;;;14.90;;
51578;SDS011;47998;53.242;6.386;2022-09-09T06:32:05;21.95;;;14.60;;
51578;SDS011;47998;53.242;6.386;2022-09-09T06:34:33;26.08;;;15.15;;
51578;SDS011;47998;53.242;6.386;2022-09-09T06:37:00;23.33;;;14.80;;
51578;SDS011;47998;53.242;6.386;2022-09-09T06:39:26;22.50;;;15.27;;
51578;SDS011;47998;53.242;6.386;2022-09-09T06:41:52;25.33;;;13.43;;
51578;SDS011;47998;53.242;6.386;2022-09-09T06:44:18;22.58;;;13.23;;
51578;SDS011;47998;53.242;6.386;2022-09-09T06:46:44;18.83;;;12.98;;
51578;SDS011;47998;53.242;6.386;2022-09-09T06:49:13;19.23;;;12.30;;
51578;SDS011;47998;53.242;6.386;2022-09-09T06:51:39;17.95;;;12.65;;
51578;SDS011;47998;53.242;6.386;2022-09-09T06:54:07;18.75;;;11.55;;
51578;SDS011;47998;53.242;6.386;2022-09-09T06:56:38;13.75;;;11.02;;
51578;SDS011;47998;53.242;6.386;2022-09-09T06:59:07;15.55;;;11.27;;
51578;SDS011;47998;53.242;6.386;2022-09-09T07:01:38;18.58;;;10.25;;
51578;SDS011;47998;53.242;6.386;2022-09-09T07:04:16;13.77;;;9.70;;
51578;SDS011;47998;53.242;6.386;2022-09-09T07:06:43;15.13;;;11.88;;
51578;SDS011;47998;53.242;6.386;2022-09-09T07:09:11;13.68;;;10.25;;
51578;SDS011;47998;53.242;6.386;2022-09-09T07:11:42;14.82;;;9.23;;
51578;SDS011;47998;53.242;6.386;2022-09-09T07:14:09;13.45;;;8.52;;
51578;SDS011;47998;53.242;6.386;2022-09-09T07:16:39;13.55;;;8.88;;
51578;SDS011;47998;53.242;6.386;2022-09-09T07:19:09;11.77;;;9.55;;
51578;SDS011;47998;53.242;6.386;2022-09-09T07:21:35;16.90;;;10.63;;
51578;SDS011;47998;53.242;6.386;2022-09-09T07:24:01;12.70;;;8.65;;
51578;SDS011;47998;53.242;6.386;2022-09-09T07:26:28;11.95;;;8.30;;
51578;SDS011;47998;53.242;6.386;2022-09-09T07:28:55;13.93;;;9.63;;
51578;SDS011;47998;53.242;6.386;2022-09-09T07:31:26;11.07;;;9.13;;
51578;SDS011;47998;53.242;6.386;2022-09-09T07:33:54;13.48;;;9.90;;
51578;SDS011;47998;53.242;6.386;2022-09-09T07:36:21;12.05;;;7.85;;
51578;SDS011;47998;53.242;6.386;2022-09-09T07:39:25;11.43;;;8.85;;
51578;SDS011;47998;53.242;6.386;2022-09-09T07:41:45;9.95;;;7.43;;
51578;SDS011;47998;53.242;6.386;2022-09-09T07:44:14;10.23;;;8.20;;
51578;SDS011;47998;53.242;6.386;2022-09-09T07:46:42;12.02;;;7.50;;
51578;SDS011;47998;53.242;6.386;2022-09-09T07:49:10;15.23;;;7.30;;
51578;SDS011;47998;53.242;6.386;2022-09-09T07:51:40;10.45;;;7.35;;
51578;SDS011;47998;53.242;6.386;2022-09-09T07:54:09;11.02;;;6.57;;
51578;SDS011;47998;53.242;6.386;2022-09-09T07:56:36;10.40;;;7.50;;
51578;SDS011;47998;53.242;6.386;2022-09-09T07:59:03;14.80;;;7.93;;
51578;SDS011;47998;53.242;6.386;2022-09-09T08:01:38;7.43;;;6.20;;
51578;SDS011;47998;53.242;6.386;2022-09-09T08:04:06;8.68;;;7.07;;
51578;SDS011;47998;53.242;6.386;2022-09-09T08:06:38;8.55;;;6.57;;
51578;SDS011;47998;53.242;6.386;2022-09-09T08:09:05;10.93;;;6.50;;
51578;SDS011;47998;53.242;6.386;2022-09-09T08:11:32;9.13;;;6.18;;
51578;SDS011;47998;53.242;6.386;2022-09-09T08:13:59;10.68;;;6.43;;
51578;SDS011;47998;53.242;6.386;2022-09-09T08:16:26;8.63;;;6.72;;
51578;SDS011;47998;53.242;6.386;2022-09-09T08:18:55;11.05;;;6.22;;
51578;SDS011;47998;53.242;6.386;2022-09-09T08:21:22;10.10;;;6.55;;
51578;SDS011;47998;53.242;6.386;2022-09-09T08:23:50;10.38;;;6.18;;
51578;SDS011;47998;53.242;6.386;2022-09-09T08:26:22;8.82;;;5.68;;
51578;SDS011;47998;53.242;6.386;2022-09-09T08:28:50;10.07;;;6.00;;
51578;SDS011;47998;53.242;6.386;2022-09-09T08:31:18;10.00;;;5.45;;
51578;SDS011;47998;53.242;6.386;2022-09-09T08:33:46;7.50;;;5.60;;
51578;SDS011;47998;53.242;6.386;2022-09-09T08:36:12;9.50;;;5.43;;
51578;SDS011;47998;53.242;6.386;2022-09-09T08:38:40;9.73;;;5.05;;
51578;SDS011;47998;53.242;6.386;2022-09-09T08:52:48;9.05;;;5.05;;
51578;SDS011;47998;53.242;6.386;2022-09-09T08:58:26;8.93;;;5.43;;
51578;SDS011;47998;53.242;6.386;2022-09-09T09:09:57;9.27;;;4.70;;
51578;SDS011;47998;53.242;6.386;2022-09-09T09:12:32;17.25;;;5.63;;
51578;SDS011;47998;53.242;6.386;2022-09-09T09:15:28;16.83;;;4.95;;
51578;SDS011;47998;53.242;6.386;2022-09-09T09:17:55;12.05;;;4.03;;
51578;SDS011;47998;53.242;6.386;2022-09-09T09:23:24;12.02;;;4.43;;
51578;SDS011;47998;53.242;6.386;2022-09-09T09:25:56;7.13;;;3.50;;
51578;SDS011;47998;53.242;6.386;2022-09-09T09:28:26;6.28;;;3.30;;
51578;SDS011;47998;53.242;6.386;2022-09-09T09:30:59;8.88;;;3.70;;
51578;SDS011;47998;53.242;6.386;2022-09-09T09:36:11;6.38;;;2.97;;
51578;SDS011;47998;53.242;6.386;2022-09-09T09:38:40;10.45;;;2.90;;
51578;SDS011;47998;53.242;6.386;2022-09-09T09:41:28;9.50;;;2.53;;
51578;SDS011;47998;53.242;6.386;2022-09-09T09:44:00;8.77;;;2.30;;
51578;SDS011;47998;53.242;6.386;2022-09-09T09:46:27;7.57;;;2.45;;
51578;SDS011;47998;53.242;6.386;2022-09-09T09:49:11;11.23;;;2.55;;
51578;SDS011;47998;53.242;6.386;2022-09-09T09:51:38;8.80;;;2.10;;
51578;SDS011;47998;53.242;6.386;2022-09-09T09:54:17;8.18;;;2.20;;
51578;SDS011;47998;53.242;6.386;2022-09-09T09:56:50;8.45;;;2.08;;
51578;SDS011;47998;53.242;6.386;2022-09-09T09:59:22;11.88;;;2.58;;
51578;SDS011;47998;53.242;6.386;2022-09-09T10:01:51;10.13;;;2.53;;
51578;SDS011;47998;53.242;6.386;2022-09-09T10:04:18;6.82;;;2.15;;
51578;SDS011;47998;53.242;6.386;2022-09-09T10:06:45;7.65;;;2.45;;
51578;SDS011;47998;53.242;6.386;2022-09-09T10:14:44;10.30;;;1.90;;
51578;SDS011;47998;53.242;6.386;2022-09-09T10:22:52;11.20;;;2.10;;
51578;SDS011;47998;53.242;6.386;2022-09-09T10:25:52;10.32;;;1.77;;
51578;SDS011;47998;53.242;6.386;2022-09-09T10:36:17;9.77;;;2.65;;
51578;SDS011;47998;53.242;6.386;2022-09-09T10:38:47;8.18;;;1.90;;
51578;SDS011;47998;53.242;6.386;2022-09-09T10:44:32;6.40;;;1.97;;
51578;SDS011;47998;53.242;6.386;2022-09-09T10:47:19;13.93;;;2.85;;
51578;SDS011;47998;53.242;6.386;2022-09-09T10:53:08;9.90;;;2.78;;
51578;SDS011;47998;53.242;6.386;2022-09-09T10:55:39;4.53;;;1.55;;
51578;SDS011;47998;53.242;6.386;2022-09-09T10:58:10;7.45;;;1.77;;
51578;SDS011;47998;53.242;6.386;2022-09-09T11:00:53;4.95;;;1.77;;
51578;SDS011;47998;53.242;6.386;2022-09-09T11:03:23;5.13;;;1.52;;
51578;SDS011;47998;53.242;6.386;2022-09-09T11:06:02;9.60;;;1.93;;
51578;SDS011;47998;53.242;6.386;2022-09-09T11:08:31;6.95;;;1.52;;
51578;SDS011;47998;53.242;6.386;2022-09-09T11:16:27;5.68;;;1.50;;
51578;SDS011;47998;53.242;6.386;2022-09-09T11:19:30;6.65;;;1.13;;
51578;SDS011;47998;53.242;6.386;2022-09-09T11:22:05;7.97;;;1.58;;
51578;SDS011;47998;53.242;6.386;2022-09-09T11:24:56;10.98;;;1.75;;
51578;SDS011;47998;53.242;6.386;2022-09-09T11:39:17;6.88;;;1.60;;
51578;SDS011;47998;53.242;6.386;2022-09-09T11:41:18;6.28;;;1.17;;
51578;SDS011;47998;53.242;6.386;2022-09-09T11:43:52;7.13;;;1.65;;
51578;SDS011;47998;53.242;6.386;2022-09-09T11:46:19;7.22;;;1.40;;
51578;SDS011;47998;53.242;6.386;2022-09-09T11:49:01;6.28;;;1.35;;
51578;SDS011;47998;53.242;6.386;2022-09-09T11:51:30;7.30;;;1.38;;
51578;SDS011;47998;53.242;6.386;2022-09-09T11:53:58;6.95;;;0.98;;
51578;SDS011;47998;53.242;6.386;2022-09-09T11:59:03;4.80;;;1.33;;
51578;SDS011;47998;53.242;6.386;2022-09-09T12:01:49;9.43;;;1.42;;
51578;SDS011;47998;53.242;6.386;2022-09-09T12:07:21;6.25;;;1.58;;
51578;SDS011;47998;53.242;6.386;2022-09-09T12:12:37;4.28;;;1.15;;
51578;SDS011;47998;53.242;6.386;2022-09-09T12:17:41;5.18;;;0.98;;
51578;SDS011;47998;53.242;6.386;2022-09-09T12:28:32;6.30;;;1.13;;
51578;SDS011;47998;53.242;6.386;2022-09-09T12:34:06;6.72;;;1.42;;
51578;SDS011;47998;53.242;6.386;2022-09-09T12:36:42;8.77;;;2.33;;
51578;SDS011;47998;53.242;6.386;2022-09-09T12:39:16;4.28;;;1.20;;
51578;SDS011;47998;53.242;6.386;2022-09-09T12:41:50;11.13;;;2.00;;
51578;SDS011;47998;53.242;6.386;2022-09-09T12:44:21;5.47;;;1.58;;
51578;SDS011;47998;53.242;6.386;2022-09-09T12:46:47;9.48;;;1.30;;
51578;SDS011;47998;53.242;6.386;2022-09-09T12:49:46;7.30;;;1.27;;
51578;SDS011;47998;53.242;6.386;2022-09-09T12:52:07;5.53;;;1.42;;
51578;SDS011;47998;53.242;6.386;2022-09-09T12:54:50;5.13;;;1.35;;
51578;SDS011;47998;53.242;6.386;2022-09-09T12:57:16;6.00;;;1.27;;
51578;SDS011;47998;53.242;6.386;2022-09-09T12:59:43;5.82;;;1.52;;
51578;SDS011;47998;53.242;6.386;2022-09-09T13:04:53;9.52;;;2.05;;
51578;SDS011;47998;53.242;6.386;2022-09-09T13:07:19;5.90;;;1.35;;
51578;SDS011;47998;53.242;6.386;2022-09-09T13:09:47;6.43;;;1.25;;
51578;SDS011;47998;53.242;6.386;2022-09-09T13:12:21;3.95;;;1.35;;
51578;SDS011;47998;53.242;6.386;2022-09-09T13:14:48;3.40;;;1.00;;
51578;SDS011;47998;53.242;6.386;2022-09-09T13:17:18;3.80;;;1.08;;
51578;SDS011;47998;53.242;6.386;2022-09-09T13:19:54;7.88;;;2.10;;
51578;SDS011;47998;53.242;6.386;2022-09-09T13:22:23;6.18;;;1.67;;
51578;SDS011;47998;53.242;6.386;2022-09-09T13:25:20;7.95;;;1.40;;
51578;SDS011;47998;53.242;6.386;2022-09-09T13:28:00;12.20;;;2.70;;
51578;SDS011;47998;53.242;6.386;2022-09-09T13:30:35;4.68;;;1.00;;
51578;SDS011;47998;53.242;6.386;2022-09-09T13:38:18;6.13;;;0.95;;
51578;SDS011;47998;53.242;6.386;2022-09-09T13:43:46;5.50;;;1.20;;
51578;SDS011;47998;53.242;6.386;2022-09-09T13:46:28;4.95;;;1.40;;
51578;SDS011;47998;53.242;6.386;2022-09-09T13:48:59;6.65;;;1.02;;
51578;SDS011;47998;53.242;6.386;2022-09-09T13:51:46;5.78;;;1.20;;
51578;SDS011;47998;53.242;6.386;2022-09-09T13:54:16;4.75;;;1.08;;
51578;SDS011;47998;53.242;6.386;2022-09-09T13:56:44;9.55;;;1.52;;
51578;SDS011;47998;53.242;6.386;2022-09-09T13:59:13;5.88;;;1.15;;
51578;SDS011;47998;53.242;6.386;2022-09-09T14:01:44;4.80;;;1.42;;
51578;SDS011;47998;53.242;6.386;2022-09-09T14:04:11;4.50;;;1.10;;
51578;SDS011;47998;53.242;6.386;2022-09-09T14:06:37;7.15;;;1.55;;
51578;SDS011;47998;53.242;6.386;2022-09-09T14:09:09;5.85;;;1.38;;
51578;SDS011;47998;53.242;6.386;2022-09-09T14:11:40;6.07;;;1.17;;
51578;SDS011;47998;53.242;6.386;2022-09-09T14:14:06;8.15;;;1.02;;
51578;SDS011;47998;53.242;6.386;2022-09-09T14:16:32;3.70;;;0.90;;
51578;SDS011;47998;53.242;6.386;2022-09-09T14:18:59;4.45;;;0.77;;
51578;SDS011;47998;53.242;6.386;2022-09-09T14:21:25;3.08;;;0.70;;
51578;SDS011;47998;53.242;6.386;2022-09-09T14:23:52;5.75;;;1.17;;
51578;SDS011;47998;53.242;6.386;2022-09-09T14:26:21;4.90;;;1.10;;
51578;SDS011;47998;53.242;6.386;2022-09-09T14:28:48;4.57;;;0.77;;
51578;SDS011;47998;53.242;6.386;2022-09-09T14:31:15;6.75;;;1.30;;
51578;SDS011;47998;53.242;6.386;2022-09-09T14:33:42;6.82;;;0.95;;
51578;SDS011;47998;53.242;6.386;2022-09-09T14:36:09;2.28;;;0.50;;
51578;SDS011;47998;53.242;6.386;2022-09-09T14:38:36;1.40;;;0.43;;
51578;SDS011;47998;53.242;6.386;2022-09-09T14:41:07;2.35;;;0.57;;
51578;SDS011;47998;53.242;6.386;2022-09-09T14:43:37;4.97;;;1.10;;
51578;SDS011;47998;53.242;6.386;2022-09-09T14:46:07;3.60;;;1.38;;
51578;SDS011;47998;53.242;6.386;2022-09-09T14:48:35;6.15;;;1.00;;
51578;SDS011;47998;53.242;6.386;2022-09-09T14:51:05;2.80;;;0.95;;
51578;SDS011;47998;53.242;6.386;2022-09-09T14:53:35;3.00;;;0.60;;
51578;SDS011;47998;53.242;6.386;2022-09-09T14:56:08;3.33;;;0.68;;
51578;SDS011;47998;53.242;6.386;2022-09-09T14:58:36;5.40;;;1.15;;
51578;SDS011;47998;53.242;6.386;2022-09-09T15:01:09;5.80;;;1.23;;
51578;SDS011;47998;53.242;6.386;2022-09-09T15:03:38;3.40;;;1.08;;
51578;SDS011;47998;53.242;6.386;2022-09-09T15:06:05;7.57;;;1.40;;
51578;SDS011;47998;53.242;6.386;2022-09-09T15:08:36;5.43;;;1.02;;
51578;SDS011;47998;53.242;6.386;2022-09-09T15:11:03;4.28;;;1.20;;
51578;SDS011;47998;53.242;6.386;2022-09-09T15:13:30;9.73;;;1.20;;
51578;SDS011;47998;53.242;6.386;2022-09-09T15:15:56;4.32;;;1.40;;
51578;SDS011;47998;53.242;6.386;2022-09-09T15:18:28;4.25;;;1.05;;
51578;SDS011;47998;53.242;6.386;2022-09-09T15:20:53;3.58;;;0.90;;
51578;SDS011;47998;53.242;6.386;2022-09-09T15:23:19;4.60;;;1.10;;
51578;SDS011;47998;53.242;6.386;2022-09-09T15:25:53;3.20;;;0.68;;
51578;SDS011;47998;53.242;6.386;2022-09-09T15:28:24;1.95;;;0.60;;
51578;SDS011;47998;53.242;6.386;2022-09-09T15:30:51;3.33;;;0.70;;
51578;SDS011;47998;53.242;6.386;2022-09-09T15:33:18;3.30;;;0.70;;
51578;SDS011;47998;53.242;6.386;2022-09-09T15:35:44;2.42;;;0.70;;
51578;SDS011;47998;53.242;6.386;2022-09-09T15:38:10;4.53;;;0.93;;
51578;SDS011;47998;53.242;6.386;2022-09-09T15:40:38;2.95;;;0.60;;
51578;SDS011;47998;53.242;6.386;2022-09-09T15:43:05;2.60;;;0.55;;
51578;SDS011;47998;53.242;6.386;2022-09-09T15:45:31;4.63;;;0.95;;
51578;SDS011;47998;53.242;6.386;2022-09-09T15:47:58;2.40;;;0.50;;
51578;SDS011;47998;53.242;6.386;2022-09-09T15:50:27;2.47;;;0.50;;
51578;SDS011;47998;53.242;6.386;2022-09-09T15:52:55;4.85;;;1.00;;
51578;SDS011;47998;53.242;6.386;2022-09-09T15:55:21;2.80;;;0.60;;
51578;SDS011;47998;53.242;6.386;2022-09-09T15:57:46;3.10;;;0.50;;
51578;SDS011;47998;53.242;6.386;2022-09-09T16:00:12;2.17;;;0.50;;
51578;SDS011;47998;53.242;6.386;2022-09-09T16:02:39;2.97;;;0.57;;
51578;SDS011;47998;53.242;6.386;2022-09-09T16:05:05;2.38;;;0.70;;
51578;SDS011;47998;53.242;6.386;2022-09-09T16:07:31;1.55;;;0.45;;
51578;SDS011;47998;53.242;6.386;2022-09-09T16:09:57;3.05;;;0.70;;
51578;SDS011;47998;53.242;6.386;2022-09-09T16:12:22;5.18;;;0.88;;
51578;SDS011;47998;53.242;6.386;2022-09-09T16:14:48;5.05;;;0.95;;
51578;SDS011;47998;53.242;6.386;2022-09-09T16:17:14;4.13;;;1.23;;
51578;SDS011;47998;53.242;6.386;2022-09-09T16:19:40;3.88;;;1.55;;
51578;SDS011;47998;53.242;6.386;2022-09-09T16:22:06;3.20;;;1.52;;
51578;SDS011;47998;53.242;6.386;2022-09-09T16:24:32;4.18;;;1.40;;
51578;SDS011;47998;53.242;6.386;2022-09-09T16:26:58;7.20;;;1.50;;
51578;SDS011;47998;53.242;6.386;2022-09-09T16:29:24;4.38;;;1.27;;
51578;SDS011;47998;53.242;6.386;2022-09-09T16:31:52;4.90;;;1.30;;
51578;SDS011;47998;53.242;6.386;2022-09-09T16:34:19;2.15;;;1.20;;
51578;SDS011;47998;53.242;6.386;2022-09-09T16:36:46;6.38;;;1.75;;
51578;SDS011;47998;53.242;6.386;2022-09-09T16:39:14;5.00;;;1.33;;
51578;SDS011;47998;53.242;6.386;2022-09-09T16:41:42;6.18;;;1.88;;
51578;SDS011;47998;53.242;6.386;2022-09-09T16:44:09;5.63;;;1.80;;
51578;SDS011;47998;53.242;6.386;2022-09-09T16:46:37;5.57;;;1.70;;
51578;SDS011;47998;53.242;6.386;2022-09-09T16:49:05;6.75;;;1.80;;
51578;SDS011;47998;53.242;6.386;2022-09-09T16:51:34;3.75;;;1.70;;
51578;SDS011;47998;53.242;6.386;2022-09-09T16:54:12;6.80;;;2.17;;
51578;SDS011;47998;53.242;6.386;2022-09-09T16:56:40;4.93;;;1.90;;
51578;SDS011;47998;53.242;6.386;2022-09-09T16:59:11;2.90;;;1.83;;
51578;SDS011;47998;53.242;6.386;2022-09-09T17:01:39;4.60;;;2.30;;
51578;SDS011;47998;53.242;6.386;2022-09-09T17:04:07;4.90;;;1.83;;
51578;SDS011;47998;53.242;6.386;2022-09-09T17:06:45;5.35;;;2.10;;
51578;SDS011;47998;53.242;6.386;2022-09-09T17:09:14;6.50;;;2.30;;
51578;SDS011;47998;53.242;6.386;2022-09-09T17:11:40;5.65;;;2.00;;
51578;SDS011;47998;53.242;6.386;2022-09-09T17:14:07;6.22;;;2.30;;
51578;SDS011;47998;53.242;6.386;2022-09-09T17:16:34;3.38;;;1.40;;
51578;SDS011;47998;53.242;6.386;2022-09-09T17:19:01;4.25;;;1.40;;
51578;SDS011;47998;53.242;6.386;2022-09-09T17:21:29;3.45;;;1.30;;
51578;SDS011;47998;53.242;6.386;2022-09-09T17:23:56;4.65;;;1.25;;